createdAt,value
2023-05-14T00:02:02.337Z,25.47
2023-05-14T00:04:33.373Z,25.10
2023-05-14T00:07:04.132Z,25.73
2023-05-14T00:09:35.458Z,25.50
2023-05-14T00:12:09.422Z,22.73
2023-05-14T00:14:40.012Z,24.10
2023-05-14T00:17:10.545Z,21.83
2023-05-14T00:19:42.115Z,21.43
2023-05-14T00:22:12.796Z,26.80
2023-05-14T00:24:43.551Z,23.83
2023-05-14T00:27:16.690Z,22.10
2023-05-14T00:29:48.485Z,21.83
2023-05-14T00:32:19.134Z,21.00
2023-05-14T00:34:49.705Z,25.10
2023-05-14T00:37:20.297Z,21.50
2023-05-14T00:39:50.923Z,26.23
2023-05-14T00:42:24.187Z,22.60
2023-05-14T00:44:54.690Z,23.77
2023-05-14T00:47:25.329Z,18.90
2023-05-14T00:49:56.123Z,24.80
2023-05-14T00:52:26.993Z,21.47
2023-05-14T00:54:58.666Z,26.60
2023-05-14T00:57:32.101Z,24.90
2023-05-14T01:00:02.870Z,25.10
2023-05-14T01:02:33.397Z,26.70
2023-05-14T01:05:04.442Z,26.10
2023-05-14T01:07:49.871Z,24.30
2023-05-14T01:10:30.803Z,23.63
2023-05-14T01:13:13.126Z,23.40
2023-05-14T01:15:44.908Z,20.93
2023-05-14T01:18:20.685Z,22.43
2023-05-14T01:20:54.309Z,23.20
2023-05-14T01:23:27.381Z,22.50
2023-05-14T01:25:58.217Z,20.80
2023-05-14T01:28:35.489Z,19.40
2023-05-14T01:31:13.723Z,22.93
2023-05-14T01:33:47.237Z,22.83
2023-05-14T01:36:18.163Z,22.10
2023-05-14T01:38:53.989Z,26.10
2023-05-14T01:41:26.033Z,26.90
2023-05-14T01:43:56.830Z,25.10
2023-05-14T01:46:27.351Z,26.87
2023-05-14T01:48:57.849Z,26.50
2023-05-14T01:51:28.427Z,26.30
2023-05-14T01:54:01.497Z,32.40
2023-05-14T01:56:32.086Z,28.37
2023-05-14T01:59:02.692Z,26.90
2023-05-14T02:01:34.230Z,27.27
2023-05-14T02:04:04.886Z,26.77
2023-05-14T02:06:35.462Z,32.43
2023-05-14T02:09:08.785Z,28.40
2023-05-14T02:11:39.317Z,28.70
2023-05-14T02:14:10.190Z,24.87
2023-05-14T02:16:40.783Z,25.93
2023-05-14T02:19:11.445Z,29.57
2023-05-14T02:21:42.025Z,22.93
2023-05-14T02:24:15.048Z,31.30
2023-05-14T02:26:45.632Z,27.17
2023-05-14T02:29:16.197Z,29.03
2023-05-14T02:31:46.778Z,22.47
2023-05-14T02:34:17.453Z,27.27
2023-05-14T02:36:47.937Z,28.33
2023-05-14T02:39:21.038Z,30.13
2023-05-14T02:41:51.526Z,24.10
2023-05-14T02:44:21.966Z,28.80
2023-05-14T02:46:52.431Z,30.07
2023-05-14T02:49:22.939Z,32.23
2023-05-14T02:51:54.423Z,28.73
2023-05-14T02:54:27.549Z,30.10
2023-05-14T02:56:58.070Z,28.10
2023-05-14T02:59:28.706Z,28.43
2023-05-14T03:01:59.680Z,28.13
2023-05-14T03:04:30.733Z,32.07
2023-05-14T03:07:01.292Z,31.20
2023-05-14T03:09:36.003Z,29.83
2023-05-14T03:12:08.731Z,30.70
2023-05-14T03:14:39.240Z,33.93
2023-05-14T03:17:10.118Z,33.70
2023-05-14T03:19:40.634Z,33.60
2023-05-14T03:22:11.325Z,39.40
2023-05-14T03:24:44.552Z,29.50
2023-05-14T03:27:15.222Z,34.23
2023-05-14T03:29:45.968Z,33.27
2023-05-14T03:32:16.544Z,33.17
2023-05-14T03:34:47.566Z,29.63
2023-05-14T03:37:18.028Z,30.23
2023-05-14T03:39:51.085Z,34.80
2023-05-14T03:42:21.552Z,32.73
2023-05-14T03:44:52.025Z,29.43
2023-05-14T03:47:22.572Z,35.63
2023-05-14T03:49:53.754Z,28.07
2023-05-14T03:52:24.284Z,30.23
2023-05-14T03:54:57.347Z,33.40
2023-05-14T03:57:28.003Z,30.60
2023-05-14T04:00:00.032Z,30.80
2023-05-14T04:02:30.651Z,25.60
2023-05-14T04:05:01.159Z,27.50
2023-05-14T04:07:31.903Z,30.83
2023-05-14T04:10:06.466Z,27.63
2023-05-14T04:12:39.339Z,28.57
2023-05-14T04:15:11.951Z,28.53
2023-05-14T04:17:42.501Z,26.37
2023-05-14T04:20:14.122Z,31.97
2023-05-14T04:22:44.669Z,29.13
2023-05-14T04:25:18.608Z,30.43
2023-05-14T04:27:49.174Z,24.90
2023-05-14T04:30:20.006Z,26.50
2023-05-14T04:32:50.576Z,24.97
2023-05-14T04:35:24.076Z,26.90
2023-05-14T04:37:55.489Z,24.23
2023-05-14T04:40:28.582Z,28.10
2023-05-14T04:42:58.995Z,21.87
2023-05-14T04:45:29.492Z,25.87
2023-05-14T04:48:00.117Z,22.80
2023-05-14T04:50:30.842Z,23.30
2023-05-14T04:53:01.349Z,25.90
2023-05-14T04:55:34.509Z,26.13
2023-05-14T04:58:05.393Z,26.53
2023-05-14T05:00:35.940Z,28.20
2023-05-14T05:03:07.040Z,27.93
2023-05-14T05:05:38.041Z,28.63
2023-05-14T05:08:08.579Z,24.33
2023-05-14T05:10:41.632Z,32.43
2023-05-14T05:13:12.134Z,23.10
2023-05-14T05:15:42.668Z,24.67
2023-05-14T05:18:13.360Z,26.93
2023-05-14T05:20:43.846Z,24.40
2023-05-14T05:23:14.429Z,27.70
2023-05-14T05:25:47.542Z,26.00
2023-05-14T05:28:18.056Z,21.87
2023-05-14T05:30:48.587Z,30.90
2023-05-14T05:33:19.963Z,24.60
2023-05-14T05:35:50.524Z,22.43
2023-05-14T05:38:21.003Z,21.20
2023-05-14T05:40:54.110Z,24.00
2023-05-14T05:43:24.608Z,22.60
2023-05-14T05:45:55.077Z,22.57
2023-05-14T05:48:25.570Z,22.13
2023-05-14T05:50:56.124Z,24.90
2023-05-14T05:53:26.619Z,19.67
2023-05-14T05:55:59.714Z,21.17
2023-05-14T05:58:30.236Z,18.00
2023-05-14T06:01:01.401Z,21.43
2023-05-14T06:03:31.860Z,21.23
2023-05-14T06:06:02.360Z,20.83
2023-05-14T06:08:32.868Z,22.20
2023-05-14T06:11:05.925Z,20.63
2023-05-14T06:13:36.384Z,20.40
2023-05-14T06:16:07.064Z,19.83
2023-05-14T06:18:37.753Z,19.17
2023-05-14T06:21:08.537Z,22.10
2023-05-14T06:23:39.025Z,16.03
2023-05-14T06:26:12.075Z,21.63
2023-05-14T06:28:42.626Z,17.70
2023-05-14T06:31:13.857Z,23.30
2023-05-14T06:33:44.521Z,22.80
2023-05-14T06:36:15.142Z,23.40
2023-05-14T06:38:45.652Z,21.50
2023-05-14T06:41:19.295Z,26.33
2023-05-14T06:43:49.891Z,21.43
2023-05-14T06:46:20.406Z,24.50
2023-05-14T06:48:50.956Z,26.17
2023-05-14T06:51:21.460Z,26.93
2023-05-14T06:53:52.781Z,27.60
2023-05-14T06:56:26.101Z,27.83
2023-05-14T06:58:56.596Z,28.03
2023-05-14T07:01:27.143Z,26.23
2023-05-14T07:03:57.646Z,26.47
2023-05-14T07:06:28.179Z,25.90
2023-05-14T07:08:58.729Z,26.27
2023-05-14T07:11:31.800Z,22.70
2023-05-14T07:14:01.998Z,23.07
2023-05-14T07:16:32.335Z,24.27
2023-05-14T07:19:02.781Z,23.13
2023-05-14T07:21:33.015Z,25.17
2023-05-14T07:24:03.506Z,21.97
2023-05-14T07:26:36.396Z,19.80
2023-05-14T07:29:06.627Z,18.77
2023-05-14T07:31:37.269Z,23.97
2023-05-14T07:34:08.754Z,17.50
2023-05-14T07:36:39.233Z,20.50
2023-05-14T07:39:09.429Z,19.87
2023-05-14T07:41:42.224Z,16.50
2023-05-14T07:44:12.551Z,17.13
2023-05-14T07:46:42.728Z,17.80
2023-05-14T07:49:12.894Z,16.63
2023-05-14T07:51:43.248Z,15.53
2023-05-14T07:54:13.616Z,19.53
2023-05-14T07:56:46.440Z,19.87
2023-05-14T07:59:16.639Z,14.50
2023-05-14T08:01:47.174Z,17.87
2023-05-14T08:04:18.204Z,16.90
2023-05-14T08:06:48.389Z,16.50
2023-05-14T08:09:18.628Z,18.50
2023-05-14T08:11:51.371Z,14.43
2023-05-14T08:14:21.618Z,15.90
2023-05-14T08:16:51.845Z,16.83
2023-05-14T08:19:22.372Z,15.63
2023-05-14T08:21:52.873Z,17.77
2023-05-14T08:24:23.383Z,14.87
2023-05-14T08:26:56.433Z,13.60
2023-05-14T08:29:27.028Z,13.70
2023-05-14T08:31:58.078Z,14.73
2023-05-14T08:34:28.901Z,13.90
2023-05-14T08:36:59.758Z,14.50
2023-05-14T08:39:30.574Z,16.50
2023-05-14T08:42:05.004Z,13.23
2023-05-14T08:44:41.688Z,18.53
2023-05-14T08:47:14.042Z,25.27
2023-05-14T08:49:45.885Z,14.23
2023-05-14T08:52:19.086Z,13.10
2023-05-14T08:54:51.157Z,13.63
2023-05-14T08:57:26.839Z,16.07
2023-05-14T08:59:57.852Z,14.80
2023-05-14T09:02:32.113Z,15.77
2023-05-14T09:05:04.780Z,16.77
2023-05-14T09:07:36.198Z,15.77
2023-05-14T09:10:09.120Z,15.60
2023-05-14T09:12:42.351Z,15.27
2023-05-14T09:15:13.464Z,15.93
2023-05-14T09:17:44.252Z,16.97
2023-05-14T09:20:17.601Z,19.03
2023-05-14T09:22:48.194Z,16.67
2023-05-14T09:25:19.434Z,17.50
2023-05-14T09:27:56.197Z,18.40
2023-05-14T09:30:29.133Z,16.27
2023-05-14T09:32:59.768Z,15.00
2023-05-14T09:35:30.337Z,14.63
2023-05-14T09:38:00.829Z,14.80
2023-05-14T09:40:31.425Z,14.10
2023-05-14T09:43:04.621Z,15.67
2023-05-14T09:45:35.234Z,14.57
2023-05-14T09:48:06.546Z,14.57
2023-05-14T09:50:45.627Z,17.83
2023-05-14T09:53:17.915Z,18.13
2023-05-14T09:55:49.469Z,16.03
2023-05-14T09:58:22.616Z,19.53
2023-05-14T10:00:53.807Z,14.80
2023-05-14T10:03:28.024Z,13.63
2023-05-14T10:06:02.100Z,18.87
2023-05-14T10:08:38.279Z,15.07
2023-05-14T10:11:13.065Z,17.47
2023-05-14T10:13:53.586Z,14.97
2023-05-14T10:16:31.989Z,12.40
2023-05-14T10:19:08.679Z,10.90
2023-05-14T10:21:40.584Z,12.17
2023-05-14T10:24:13.090Z,13.03
2023-05-14T10:26:44.969Z,14.40
2023-05-14T10:29:18.086Z,10.73
2023-05-14T10:31:50.380Z,15.00
2023-05-14T10:34:41.285Z,11.00
2023-05-14T10:37:13.514Z,13.13
2023-05-14T10:39:48.707Z,11.50
2023-05-14T10:42:21.612Z,11.40
2023-05-14T10:44:58.867Z,12.13
2023-05-14T10:47:30.294Z,10.20
2023-05-14T10:50:04.951Z,9.30
2023-05-14T10:52:36.120Z,11.30
2023-05-14T10:55:10.392Z,9.63
2023-05-14T10:57:43.503Z,12.00
2023-05-14T11:00:18.012Z,9.63
2023-05-14T11:02:48.706Z,9.87
2023-05-14T11:05:19.857Z,8.80
2023-05-14T11:07:52.629Z,10.80
2023-05-14T11:10:26.125Z,12.77
2023-05-14T11:12:56.882Z,9.87
2023-05-14T11:15:30.795Z,10.70
2023-05-14T11:18:01.419Z,9.63
2023-05-14T11:20:32.922Z,8.17
2023-05-14T11:23:03.712Z,10.60
2023-05-14T11:25:34.321Z,9.77
2023-05-14T11:28:04.995Z,7.90
2023-05-14T11:34:13.216Z,7.93
2023-05-14T11:36:43.805Z,9.27
2023-05-14T11:39:21.725Z,5.70
2023-05-14T11:41:52.251Z,9.10
2023-05-14T11:44:22.803Z,8.50
2023-05-14T11:47:01.720Z,8.17
2023-05-14T11:49:36.157Z,8.60
2023-05-14T11:52:08.423Z,9.40
2023-05-14T11:54:38.876Z,6.87
2023-05-14T11:57:13.538Z,7.80
2023-05-14T11:59:44.362Z,8.53
2023-05-14T12:02:16.952Z,7.70
2023-05-14T12:04:54.147Z,7.50
2023-05-14T12:07:24.642Z,8.10
2023-05-14T12:09:55.216Z,7.30
2023-05-14T12:12:26.249Z,8.77
2023-05-14T12:14:56.730Z,8.13
2023-05-14T12:17:27.570Z,7.73
2023-05-14T12:20:01.021Z,7.10
2023-05-14T12:22:35.106Z,7.97
2023-05-14T12:25:07.332Z,8.63
2023-05-14T12:27:40.680Z,7.17
2023-05-14T12:32:49.133Z,8.03
2023-05-14T12:35:23.626Z,9.10
2023-05-14T12:37:54.436Z,7.60
2023-05-14T12:40:25.598Z,12.03
2023-05-14T12:42:57.027Z,6.67
2023-05-14T12:45:27.589Z,7.77
2023-05-14T12:47:58.149Z,7.10
2023-05-14T12:50:31.271Z,8.23
2023-05-14T12:53:01.782Z,7.60
2023-05-14T12:55:32.380Z,7.60
2023-05-14T12:58:02.850Z,6.40
2023-05-14T13:00:33.484Z,6.00
2023-05-14T13:03:04.039Z,8.27
2023-05-14T13:05:37.205Z,7.33
2023-05-14T13:08:07.942Z,6.87
2023-05-14T13:10:38.500Z,8.93
2023-05-14T13:13:09.014Z,8.77
2023-05-14T13:15:39.858Z,7.83
2023-05-14T13:18:10.469Z,7.60
2023-05-14T13:20:43.606Z,8.90
2023-05-14T13:23:14.110Z,7.23
2023-05-14T13:25:44.940Z,5.87
2023-05-14T13:28:17.358Z,7.00
2023-05-14T13:31:07.866Z,6.67
2023-05-14T13:33:39.644Z,7.50
2023-05-14T13:36:14.070Z,6.80
2023-05-14T13:38:45.937Z,6.80
2023-05-14T13:41:16.496Z,7.00
2023-05-14T13:43:47.088Z,5.80
2023-05-14T13:46:17.619Z,6.60
2023-05-14T13:48:48.976Z,7.27
2023-05-14T13:51:22.172Z,5.87
2023-05-14T13:56:43.268Z,5.57
2023-05-14T13:59:14.002Z,5.90
2023-05-14T14:01:45.506Z,7.87
2023-05-14T14:04:16.604Z,7.90
2023-05-14T14:06:49.735Z,8.50
2023-05-14T14:09:20.238Z,6.03
2023-05-14T14:11:51.139Z,5.97
2023-05-14T14:14:21.955Z,5.60
2023-05-14T14:16:52.477Z,5.30
2023-05-14T14:19:23.068Z,5.80
2023-05-14T14:21:56.562Z,5.17
2023-05-14T14:24:27.120Z,8.40
2023-05-14T14:26:57.700Z,6.00
2023-05-14T14:29:29.055Z,7.70
2023-05-14T14:31:59.681Z,6.20
2023-05-14T14:34:30.533Z,8.83
2023-05-14T14:37:03.690Z,6.97
2023-05-14T14:39:34.170Z,6.00
2023-05-14T14:42:04.834Z,6.70
2023-05-14T14:44:35.379Z,6.90
2023-05-14T14:47:06.226Z,7.43
2023-05-14T14:49:36.845Z,8.90
2023-05-14T14:52:10.190Z,6.27
2023-05-14T14:54:40.811Z,5.70
2023-05-14T14:57:11.382Z,8.20
2023-05-14T14:59:41.900Z,8.70
2023-05-14T15:02:13.295Z,6.37
2023-05-14T15:04:44.058Z,6.67
2023-05-14T15:07:18.812Z,8.10
2023-05-14T15:09:49.405Z,5.93
2023-05-14T15:12:20.003Z,7.13
2023-05-14T15:14:50.576Z,5.60
2023-05-14T15:17:21.116Z,6.50
2023-05-14T15:19:51.687Z,8.23
2023-05-14T15:22:25.369Z,6.10
2023-05-14T15:24:55.892Z,15.20
2023-05-14T15:27:26.531Z,7.00
2023-05-14T15:29:57.108Z,7.20
2023-05-14T15:32:28.654Z,6.83
2023-05-14T15:34:59.848Z,5.53
2023-05-14T15:37:41.220Z,7.93
2023-05-14T15:40:13.296Z,6.00
2023-05-14T15:42:47.083Z,6.40
2023-05-14T15:45:17.930Z,6.60
2023-05-14T15:47:48.535Z,5.90
2023-05-14T15:50:19.083Z,6.53
2023-05-14T15:52:52.328Z,6.87
2023-05-14T15:55:23.287Z,6.87
2023-05-14T15:57:53.793Z,7.20
2023-05-14T16:00:25.169Z,8.03
2023-05-14T16:02:56.533Z,6.60
2023-05-14T16:05:27.102Z,8.60
2023-05-14T16:08:01.156Z,9.20
2023-05-14T16:10:31.746Z,7.70
2023-05-14T16:13:02.245Z,8.67
2023-05-14T16:15:32.901Z,6.30
2023-05-14T16:18:03.999Z,7.27
2023-05-14T16:20:34.588Z,8.17
2023-05-14T16:23:07.679Z,6.70
2023-05-14T16:25:38.432Z,7.30
2023-05-14T16:28:09.146Z,6.40
2023-05-14T16:30:39.664Z,8.20
2023-05-14T16:33:10.518Z,5.20
2023-05-14T16:35:41.176Z,8.40
2023-05-14T16:38:14.360Z,6.60
2023-05-14T16:40:44.860Z,5.73
2023-05-14T16:43:15.429Z,7.80
2023-05-14T16:45:46.080Z,5.47
2023-05-14T16:48:17.155Z,7.87
2023-05-14T16:50:47.711Z,10.93
2023-05-14T16:53:21.137Z,9.77
2023-05-14T16:55:52.352Z,8.30
2023-05-14T16:58:22.800Z,12.30
2023-05-14T17:00:53.367Z,6.00
2023-05-14T17:03:24.236Z,6.50
2023-05-14T17:05:54.718Z,5.90
2023-05-14T17:08:31.906Z,8.17
2023-05-14T17:11:05.811Z,7.50
2023-05-14T17:13:36.770Z,9.43
2023-05-14T17:16:10.415Z,7.43
2023-05-14T17:18:40.978Z,5.60
2023-05-14T17:21:11.880Z,8.57
2023-05-14T17:23:45.130Z,7.07
2023-05-14T17:26:16.189Z,6.90
2023-05-14T17:28:46.726Z,6.13
2023-05-14T17:31:17.353Z,6.00
2023-05-14T17:33:47.886Z,5.83
2023-05-14T17:36:18.566Z,6.80
2023-05-14T17:38:52.676Z,8.90
2023-05-14T17:41:23.202Z,10.07
2023-05-14T17:43:53.903Z,5.33
2023-05-14T17:46:24.599Z,6.23
2023-05-14T17:48:55.220Z,6.43
2023-05-14T17:51:25.742Z,6.17
2023-05-14T17:53:59.007Z,12.83
2023-05-14T17:56:29.575Z,7.10
2023-05-14T17:59:00.226Z,6.07
2023-05-14T18:01:31.455Z,6.20
2023-05-14T18:04:02.220Z,6.37
2023-05-14T18:06:32.874Z,6.73
2023-05-14T18:09:06.110Z,5.80
2023-05-14T18:11:36.680Z,6.23
2023-05-14T18:14:07.289Z,8.23
2023-05-14T18:16:39.248Z,7.10
2023-05-14T18:19:09.889Z,10.23
2023-05-14T18:21:40.510Z,6.50
2023-05-14T18:24:13.828Z,8.70
2023-05-14T18:26:44.410Z,9.67
2023-05-14T18:29:15.050Z,10.67
2023-05-14T18:31:45.955Z,6.83
2023-05-14T18:34:17.131Z,6.80
2023-05-14T18:36:47.634Z,7.63
2023-05-14T18:39:20.792Z,8.83
2023-05-14T18:41:51.301Z,6.20
2023-05-14T18:44:21.899Z,11.20
2023-05-14T18:46:52.694Z,9.23
2023-05-14T18:49:23.237Z,8.23
2023-05-14T18:51:53.817Z,9.40
2023-05-14T18:54:26.938Z,9.87
2023-05-14T18:56:57.513Z,10.17
2023-05-14T18:59:28.147Z,10.20
2023-05-14T19:01:58.787Z,7.20
2023-05-14T19:04:31.147Z,8.60
2023-05-14T19:07:03.877Z,8.93
2023-05-14T19:09:37.049Z,8.60
2023-05-14T19:12:08.188Z,9.43
2023-05-14T19:14:38.745Z,12.87
2023-05-14T19:17:09.635Z,8.20
2023-05-14T19:19:40.403Z,10.07
2023-05-14T19:22:10.936Z,7.73
2023-05-14T19:24:44.193Z,9.07
2023-05-14T19:27:17.407Z,9.00
2023-05-14T19:29:48.049Z,11.73
2023-05-14T19:32:18.541Z,8.77
2023-05-14T19:34:49.588Z,13.03
2023-05-14T19:37:21.493Z,12.83
2023-05-14T19:39:54.688Z,10.30
2023-05-14T19:42:25.459Z,10.20
2023-05-14T19:44:56.053Z,9.93
2023-05-14T19:47:27.777Z,8.33
2023-05-14T19:49:58.335Z,9.40
2023-05-14T19:52:28.985Z,10.37
2023-05-14T19:55:02.253Z,10.87
2023-05-14T19:57:32.812Z,9.50
2023-05-14T20:00:04.390Z,8.53
2023-05-14T20:02:42.126Z,13.97
2023-05-14T20:05:13.001Z,10.40
2023-05-14T20:07:44.188Z,12.50
2023-05-14T20:10:17.500Z,11.00
2023-05-14T20:12:48.014Z,11.00
2023-05-14T20:15:18.728Z,8.97
2023-05-14T20:17:49.422Z,10.80
2023-05-14T20:20:20.046Z,9.77
2023-05-14T20:22:50.572Z,17.23
2023-05-14T20:25:25.143Z,12.10
2023-05-14T20:27:57.231Z,12.07
2023-05-14T20:30:27.796Z,9.47
2023-05-14T20:32:58.393Z,10.47
2023-05-14T20:35:29.095Z,12.30
2023-05-14T20:37:59.765Z,8.27
2023-05-14T20:40:33.031Z,12.00
2023-05-14T20:43:04.274Z,10.37
2023-05-14T20:45:35.173Z,11.90
2023-05-14T20:48:08.216Z,15.17
2023-05-14T20:50:38.930Z,11.00
2023-05-14T20:53:09.681Z,9.40
2023-05-14T20:55:44.837Z,9.47
2023-05-14T20:58:15.460Z,11.93
2023-05-14T21:00:46.196Z,12.53
2023-05-14T21:03:16.910Z,12.70
2023-05-14T21:05:47.699Z,11.03
2023-05-14T21:08:18.882Z,19.77
2023-05-14T21:10:52.066Z,11.60
2023-05-14T21:13:22.747Z,13.50
2023-05-14T21:15:53.473Z,13.60
2023-05-14T21:18:26.803Z,12.73
2023-05-14T21:20:57.500Z,12.90
2023-05-14T21:23:28.089Z,18.90
2023-05-14T21:26:01.259Z,13.47
2023-05-14T21:28:31.780Z,14.50
2023-05-14T21:31:02.308Z,15.40
2023-05-14T21:33:33.083Z,12.70
2023-05-14T21:36:03.763Z,21.43
2023-05-14T21:38:34.490Z,15.70
2023-05-14T21:41:07.602Z,13.03
2023-05-14T21:43:40.833Z,12.20
2023-05-14T21:46:11.492Z,14.07
2023-05-14T21:48:42.111Z,16.87
2023-05-14T21:51:12.651Z,16.33
2023-05-14T21:53:43.248Z,11.83
2023-05-14T21:56:16.396Z,11.20
2023-05-14T21:58:47.925Z,12.73
2023-05-14T22:01:18.511Z,16.63
2023-05-14T22:03:49.154Z,10.80
2023-05-14T22:06:19.746Z,12.50
2023-05-14T22:08:50.270Z,13.40
2023-05-14T22:11:23.797Z,17.40
2023-05-14T22:13:54.402Z,10.70
2023-05-14T22:16:27.069Z,13.20
2023-05-14T22:18:57.979Z,14.47
2023-05-14T22:21:28.603Z,15.73
2023-05-14T22:23:59.105Z,14.50
2023-05-14T22:26:32.363Z,16.63
2023-05-14T22:29:02.939Z,14.63
2023-05-14T22:31:33.567Z,19.93
2023-05-14T22:34:04.099Z,19.57
2023-05-14T22:36:34.759Z,14.70
2023-05-14T22:39:05.335Z,13.40
2023-05-14T22:41:38.946Z,13.37
2023-05-14T22:44:09.512Z,14.97
2023-05-14T22:46:40.155Z,15.87
2023-05-14T22:49:10.735Z,15.40
2023-05-14T22:51:41.491Z,17.90
2023-05-14T22:54:13.466Z,16.10
2023-05-14T22:56:46.581Z,16.17
2023-05-14T22:59:17.521Z,14.77
2023-05-14T23:01:48.222Z,15.23
2023-05-14T23:04:18.877Z,12.93
2023-05-14T23:06:49.678Z,14.50
2023-05-14T23:09:20.249Z,15.67
2023-05-14T23:11:53.393Z,15.90
2023-05-14T23:14:24.115Z,12.57
2023-05-14T23:16:54.786Z,14.03
2023-05-14T23:19:26.719Z,16.47
2023-05-14T23:21:58.398Z,16.80
2023-05-14T23:24:29.058Z,16.53
2023-05-14T23:27:02.443Z,15.83
2023-05-14T23:29:32.998Z,21.10
2023-05-14T23:32:03.930Z,17.37
2023-05-14T23:34:34.800Z,17.90
2023-05-14T23:37:05.566Z,18.10
2023-05-14T23:39:36.110Z,21.13
2023-05-14T23:42:09.418Z,15.23
2023-05-14T23:44:39.968Z,16.50
2023-05-14T23:47:11.158Z,20.43
2023-05-14T23:49:42.307Z,17.67
2023-05-14T23:52:12.882Z,20.93
2023-05-14T23:54:43.563Z,16.20
2023-05-14T23:57:16.902Z,20.80
2023-05-14T23:59:47.604Z,19.13
